sensor_id;sensor_type;location;lat;lon;timestamp;P1;durP1;ratioP1;P2;durP2;ratioP2
33162;SDS011;29282;45.656;11.302;2024-01-06T00:02:16;7.13;;;3.20;;
33162;SDS011;29282;45.656;11.302;2024-01-06T00:04:42;4.65;;;2.92;;
33162;SDS011;29282;45.656;11.302;2024-01-06T00:07:07;4.15;;;3.10;;
33162;SDS011;29282;45.656;11.302;2024-01-06T00:09:33;9.02;;;3.40;;
33162;SDS011;29282;45.656;11.302;2024-01-06T00:11:58;4.05;;;3.10;;
33162;SDS011;29282;45.656;11.302;2024-01-06T00:14:24;5.97;;;3.22;;
33162;SDS011;29282;45.656;11.302;2024-01-06T00:16:49;4.47;;;3.05;;
33162;SDS011;29282;45.656;11.302;2024-01-06T00:19:15;5.93;;;3.22;;
33162;SDS011;29282;45.656;11.302;2024-01-06T00:21:42;5.45;;;3.45;;
33162;SDS011;29282;45.656;11.302;2024-01-06T00:24:08;3.80;;;3.05;;
33162;SDS011;29282;45.656;11.302;2024-01-06T00:26:33;4.65;;;3.17;;
33162;SDS011;29282;45.656;11.302;2024-01-06T00:28:59;4.88;;;3.10;;
33162;SDS011;29282;45.656;11.302;2024-01-06T00:31:24;4.30;;;3.08;;
33162;SDS011;29282;45.656;11.302;2024-01-06T00:33:50;4.47;;;3.20;;
33162;SDS011;29282;45.656;11.302;2024-01-06T00:36:15;3.45;;;3.03;;
33162;SDS011;29282;45.656;11.302;2024-01-06T00:38:41;5.22;;;3.13;;
33162;SDS011;29282;45.656;11.302;2024-01-06T00:41:06;4.70;;;2.95;;
33162;SDS011;29282;45.656;11.302;2024-01-06T00:43:32;5.03;;;3.10;;
33162;SDS011;29282;45.656;11.302;2024-01-06T00:45:57;4.15;;;2.97;;
33162;SDS011;29282;45.656;11.302;2024-01-06T00:48:23;4.72;;;3.20;;
33162;SDS011;29282;45.656;11.302;2024-01-06T00:50:48;4.13;;;2.63;;
33162;SDS011;29282;45.656;11.302;2024-01-06T00:53:14;4.75;;;3.08;;
33162;SDS011;29282;45.656;11.302;2024-01-06T00:55:39;4.25;;;3.00;;
33162;SDS011;29282;45.656;11.302;2024-01-06T00:58:05;4.57;;;2.70;;
33162;SDS011;29282;45.656;11.302;2024-01-06T01:00:30;6.20;;;3.40;;
33162;SDS011;29282;45.656;11.302;2024-01-06T01:02:56;3.97;;;2.65;;
33162;SDS011;29282;45.656;11.302;2024-01-06T01:05:22;4.18;;;3.05;;
33162;SDS011;29282;45.656;11.302;2024-01-06T01:07:47;4.85;;;3.00;;
33162;SDS011;29282;45.656;11.302;2024-01-06T01:10:13;7.68;;;3.30;;
33162;SDS011;29282;45.656;11.302;2024-01-06T01:12:38;3.65;;;2.65;;
33162;SDS011;29282;45.656;11.302;2024-01-06T01:15:04;3.65;;;2.83;;
33162;SDS011;29282;45.656;11.302;2024-01-06T01:17:30;4.07;;;2.78;;
33162;SDS011;29282;45.656;11.302;2024-01-06T01:19:55;4.32;;;2.85;;
33162;SDS011;29282;45.656;11.302;2024-01-06T01:22:21;3.88;;;2.83;;
33162;SDS011;29282;45.656;11.302;2024-01-06T01:24:46;3.80;;;3.08;;
33162;SDS011;29282;45.656;11.302;2024-01-06T01:27:12;3.80;;;3.10;;
33162;SDS011;29282;45.656;11.302;2024-01-06T01:29:37;4.78;;;3.03;;
33162;SDS011;29282;45.656;11.302;2024-01-06T01:32:03;4.28;;;2.72;;
33162;SDS011;29282;45.656;11.302;2024-01-06T01:34:29;4.40;;;2.80;;
33162;SDS011;29282;45.656;11.302;2024-01-06T01:36:54;3.22;;;2.45;;
33162;SDS011;29282;45.656;11.302;2024-01-06T01:39:20;4.38;;;2.70;;
33162;SDS011;29282;45.656;11.302;2024-01-06T01:41:46;4.30;;;2.75;;
33162;SDS011;29282;45.656;11.302;2024-01-06T01:44:11;4.50;;;3.00;;
33162;SDS011;29282;45.656;11.302;2024-01-06T01:46:37;3.22;;;2.53;;
33162;SDS011;29282;45.656;11.302;2024-01-06T01:49:06;4.88;;;2.97;;
33162;SDS011;29282;45.656;11.302;2024-01-06T01:51:32;3.90;;;2.90;;
33162;SDS011;29282;45.656;11.302;2024-01-06T01:54:03;3.60;;;2.47;;
33162;SDS011;29282;45.656;11.302;2024-01-06T01:56:30;3.42;;;2.35;;
33162;SDS011;29282;45.656;11.302;2024-01-06T01:59:04;5.43;;;2.72;;
33162;SDS011;29282;45.656;11.302;2024-01-06T02:01:33;3.05;;;2.33;;
33162;SDS011;29282;45.656;11.302;2024-01-06T02:03:59;3.60;;;2.65;;
33162;SDS011;29282;45.656;11.302;2024-01-06T02:06:24;5.18;;;2.65;;
33162;SDS011;29282;45.656;11.302;2024-01-06T02:08:50;3.75;;;2.47;;
33162;SDS011;29282;45.656;11.302;2024-01-06T02:11:15;3.05;;;2.65;;
33162;SDS011;29282;45.656;11.302;2024-01-06T02:13:43;2.92;;;2.30;;
33162;SDS011;29282;45.656;11.302;2024-01-06T02:16:09;2.33;;;2.03;;
33162;SDS011;29282;45.656;11.302;2024-01-06T02:18:34;3.75;;;2.40;;
33162;SDS011;29282;45.656;11.302;2024-01-06T02:21:01;6.68;;;2.55;;
33162;SDS011;29282;45.656;11.302;2024-01-06T02:23:27;3.58;;;2.50;;
33162;SDS011;29282;45.656;11.302;2024-01-06T02:25:53;3.92;;;2.20;;
33162;SDS011;29282;45.656;11.302;2024-01-06T02:28:20;3.58;;;2.35;;
33162;SDS011;29282;45.656;11.302;2024-01-06T02:30:45;2.75;;;2.25;;
33162;SDS011;29282;45.656;11.302;2024-01-06T02:33:11;3.00;;;2.22;;
33162;SDS011;29282;45.656;11.302;2024-01-06T02:35:36;3.55;;;2.50;;
33162;SDS011;29282;45.656;11.302;2024-01-06T02:38:02;3.55;;;2.65;;
33162;SDS011;29282;45.656;11.302;2024-01-06T02:40:27;3.63;;;2.53;;
33162;SDS011;29282;45.656;11.302;2024-01-06T02:42:53;2.72;;;2.25;;
33162;SDS011;29282;45.656;11.302;2024-01-06T02:45:19;3.90;;;2.80;;
33162;SDS011;29282;45.656;11.302;2024-01-06T02:47:44;3.30;;;2.38;;
33162;SDS011;29282;45.656;11.302;2024-01-06T02:50:10;2.85;;;2.03;;
33162;SDS011;29282;45.656;11.302;2024-01-06T02:52:35;4.22;;;2.30;;
33162;SDS011;29282;45.656;11.302;2024-01-06T02:55:01;2.67;;;2.15;;
33162;SDS011;29282;45.656;11.302;2024-01-06T02:57:27;3.60;;;2.22;;
33162;SDS011;29282;45.656;11.302;2024-01-06T02:59:54;4.10;;;2.70;;
33162;SDS011;29282;45.656;11.302;2024-01-06T03:02:20;4.03;;;2.47;;
33162;SDS011;29282;45.656;11.302;2024-01-06T03:04:45;3.08;;;2.17;;
33162;SDS011;29282;45.656;11.302;2024-01-06T03:07:11;2.83;;;2.22;;
33162;SDS011;29282;45.656;11.302;2024-01-06T03:09:36;2.95;;;2.40;;
33162;SDS011;29282;45.656;11.302;2024-01-06T03:12:04;3.05;;;2.35;;
33162;SDS011;29282;45.656;11.302;2024-01-06T03:14:31;3.70;;;2.20;;
33162;SDS011;29282;45.656;11.302;2024-01-06T03:17:00;3.22;;;2.40;;
33162;SDS011;29282;45.656;11.302;2024-01-06T03:19:25;5.72;;;2.55;;
33162;SDS011;29282;45.656;11.302;2024-01-06T03:21:52;3.28;;;2.20;;
33162;SDS011;29282;45.656;11.302;2024-01-06T03:24:18;2.58;;;1.98;;
33162;SDS011;29282;45.656;11.302;2024-01-06T03:26:44;3.35;;;2.33;;
33162;SDS011;29282;45.656;11.302;2024-01-06T03:29:12;5.38;;;2.10;;
33162;SDS011;29282;45.656;11.302;2024-01-06T03:31:41;3.33;;;2.30;;
33162;SDS011;29282;45.656;11.302;2024-01-06T03:34:08;2.25;;;2.00;;
33162;SDS011;29282;45.656;11.302;2024-01-06T03:36:33;2.42;;;2.15;;
33162;SDS011;29282;45.656;11.302;2024-01-06T03:38:59;3.00;;;2.22;;
33162;SDS011;29282;45.656;11.302;2024-01-06T03:41:25;3.00;;;2.40;;
33162;SDS011;29282;45.656;11.302;2024-01-06T03:43:50;2.92;;;2.00;;
33162;SDS011;29282;45.656;11.302;2024-01-06T03:46:16;3.53;;;1.92;;
33162;SDS011;29282;45.656;11.302;2024-01-06T03:48:41;3.45;;;2.03;;
33162;SDS011;29282;45.656;11.302;2024-01-06T03:51:07;3.03;;;2.13;;
33162;SDS011;29282;45.656;11.302;2024-01-06T03:53:33;3.63;;;1.98;;
33162;SDS011;29282;45.656;11.302;2024-01-06T03:55:58;2.55;;;1.75;;
33162;SDS011;29282;45.656;11.302;2024-01-06T03:58:24;2.72;;;2.00;;
33162;SDS011;29282;45.656;11.302;2024-01-06T04:00:49;2.35;;;2.00;;
33162;SDS011;29282;45.656;11.302;2024-01-06T04:03:15;2.25;;;1.95;;
33162;SDS011;29282;45.656;11.302;2024-01-06T04:05:40;3.47;;;2.10;;
33162;SDS011;29282;45.656;11.302;2024-01-06T04:08:06;2.33;;;1.83;;
33162;SDS011;29282;45.656;11.302;2024-01-06T04:10:31;2.42;;;1.88;;
33162;SDS011;29282;45.656;11.302;2024-01-06T04:12:57;2.70;;;2.10;;
33162;SDS011;29282;45.656;11.302;2024-01-06T04:15:22;2.60;;;1.80;;
33162;SDS011;29282;45.656;11.302;2024-01-06T04:17:48;2.75;;;2.20;;
33162;SDS011;29282;45.656;11.302;2024-01-06T04:20:14;2.45;;;1.75;;
33162;SDS011;29282;45.656;11.302;2024-01-06T04:22:42;2.58;;;2.03;;
33162;SDS011;29282;45.656;11.302;2024-01-06T04:25:09;2.42;;;1.85;;
33162;SDS011;29282;45.656;11.302;2024-01-06T04:27:35;2.20;;;1.95;;
33162;SDS011;29282;45.656;11.302;2024-01-06T04:30:00;2.47;;;1.90;;
33162;SDS011;29282;45.656;11.302;2024-01-06T04:32:27;2.40;;;2.00;;
33162;SDS011;29282;45.656;11.302;2024-01-06T04:34:55;3.15;;;2.00;;
33162;SDS011;29282;45.656;11.302;2024-01-06T04:37:22;4.28;;;2.00;;
33162;SDS011;29282;45.656;11.302;2024-01-06T04:39:49;2.70;;;2.22;;
33162;SDS011;29282;45.656;11.302;2024-01-06T04:42:14;2.95;;;1.70;;
33162;SDS011;29282;45.656;11.302;2024-01-06T04:44:40;2.17;;;1.83;;
33162;SDS011;29282;45.656;11.302;2024-01-06T04:47:05;2.75;;;1.90;;
33162;SDS011;29282;45.656;11.302;2024-01-06T04:49:31;1.70;;;1.42;;
33162;SDS011;29282;45.656;11.302;2024-01-06T04:51:56;3.53;;;2.10;;
33162;SDS011;29282;45.656;11.302;2024-01-06T04:54:22;3.35;;;1.70;;
33162;SDS011;29282;45.656;11.302;2024-01-06T04:56:47;2.90;;;1.80;;
33162;SDS011;29282;45.656;11.302;2024-01-06T04:59:13;1.95;;;1.73;;
33162;SDS011;29282;45.656;11.302;2024-01-06T05:01:38;1.77;;;1.60;;
33162;SDS011;29282;45.656;11.302;2024-01-06T05:04:04;2.15;;;1.60;;
33162;SDS011;29282;45.656;11.302;2024-01-06T05:06:29;2.17;;;1.75;;
33162;SDS011;29282;45.656;11.302;2024-01-06T05:08:55;2.97;;;1.90;;
33162;SDS011;29282;45.656;11.302;2024-01-06T05:11:20;2.67;;;1.88;;
33162;SDS011;29282;45.656;11.302;2024-01-06T05:13:46;2.38;;;1.73;;
33162;SDS011;29282;45.656;11.302;2024-01-06T05:16:12;1.83;;;1.67;;
33162;SDS011;29282;45.656;11.302;2024-01-06T05:18:37;2.15;;;1.70;;
33162;SDS011;29282;45.656;11.302;2024-01-06T05:21:03;2.53;;;1.80;;
33162;SDS011;29282;45.656;11.302;2024-01-06T05:23:29;3.05;;;1.77;;
33162;SDS011;29282;45.656;11.302;2024-01-06T05:25:54;2.08;;;1.70;;
33162;SDS011;29282;45.656;11.302;2024-01-06T05:28:20;1.75;;;1.65;;
33162;SDS011;29282;45.656;11.302;2024-01-06T05:30:45;2.60;;;1.90;;
33162;SDS011;29282;45.656;11.302;2024-01-06T05:33:12;3.08;;;1.90;;
33162;SDS011;29282;45.656;11.302;2024-01-06T05:35:40;2.08;;;1.77;;
33162;SDS011;29282;45.656;11.302;2024-01-06T05:38:06;2.58;;;1.90;;
33162;SDS011;29282;45.656;11.302;2024-01-06T05:40:31;2.40;;;1.90;;
33162;SDS011;29282;45.656;11.302;2024-01-06T05:42:57;3.08;;;1.80;;
33162;SDS011;29282;45.656;11.302;2024-01-06T05:45:25;2.30;;;1.77;;
33162;SDS011;29282;45.656;11.302;2024-01-06T05:47:51;1.70;;;1.60;;
33162;SDS011;29282;45.656;11.302;2024-01-06T05:50:16;2.10;;;1.90;;
33162;SDS011;29282;45.656;11.302;2024-01-06T05:52:42;1.73;;;1.60;;
33162;SDS011;29282;45.656;11.302;2024-01-06T05:55:08;2.65;;;1.80;;
33162;SDS011;29282;45.656;11.302;2024-01-06T05:57:36;1.80;;;1.65;;
33162;SDS011;29282;45.656;11.302;2024-01-06T06:00:02;1.50;;;1.33;;
33162;SDS011;29282;45.656;11.302;2024-01-06T06:02:28;1.80;;;1.70;;
33162;SDS011;29282;45.656;11.302;2024-01-06T06:04:53;1.90;;;1.70;;
33162;SDS011;29282;45.656;11.302;2024-01-06T06:07:19;2.08;;;1.58;;
33162;SDS011;29282;45.656;11.302;2024-01-06T06:09:47;1.90;;;1.70;;
33162;SDS011;29282;45.656;11.302;2024-01-06T06:12:13;2.50;;;1.63;;
33162;SDS011;29282;45.656;11.302;2024-01-06T06:14:39;1.55;;;1.45;;
33162;SDS011;29282;45.656;11.302;2024-01-06T06:17:04;2.20;;;1.70;;
33162;SDS011;29282;45.656;11.302;2024-01-06T06:19:30;2.10;;;1.70;;
33162;SDS011;29282;45.656;11.302;2024-01-06T06:21:56;1.92;;;1.73;;
33162;SDS011;29282;45.656;11.302;2024-01-06T06:24:21;2.10;;;1.77;;
33162;SDS011;29282;45.656;11.302;2024-01-06T06:26:47;2.35;;;1.73;;
33162;SDS011;29282;45.656;11.302;2024-01-06T06:29:12;1.55;;;1.45;;
33162;SDS011;29282;45.656;11.302;2024-01-06T06:31:38;2.15;;;1.60;;
33162;SDS011;29282;45.656;11.302;2024-01-06T06:34:03;2.38;;;1.77;;
33162;SDS011;29282;45.656;11.302;2024-01-06T06:36:29;1.55;;;1.40;;
33162;SDS011;29282;45.656;11.302;2024-01-06T06:38:54;1.85;;;1.65;;
33162;SDS011;29282;45.656;11.302;2024-01-06T06:41:23;1.65;;;1.45;;
33162;SDS011;29282;45.656;11.302;2024-01-06T06:43:48;2.30;;;1.58;;
33162;SDS011;29282;45.656;11.302;2024-01-06T06:46:14;2.38;;;1.70;;
33162;SDS011;29282;45.656;11.302;2024-01-06T06:48:39;2.28;;;1.77;;
33162;SDS011;29282;45.656;11.302;2024-01-06T06:51:05;1.70;;;1.50;;
33162;SDS011;29282;45.656;11.302;2024-01-06T06:53:31;2.00;;;1.65;;
33162;SDS011;29282;45.656;11.302;2024-01-06T06:55:56;2.17;;;1.75;;
33162;SDS011;29282;45.656;11.302;2024-01-06T06:58:21;2.35;;;1.73;;
33162;SDS011;29282;45.656;11.302;2024-01-06T07:00:47;2.22;;;1.50;;
33162;SDS011;29282;45.656;11.302;2024-01-06T07:03:12;3.20;;;1.60;;
33162;SDS011;29282;45.656;11.302;2024-01-06T07:05:39;2.10;;;1.70;;
33162;SDS011;29282;45.656;11.302;2024-01-06T07:08:04;1.58;;;1.40;;
33162;SDS011;29282;45.656;11.302;2024-01-06T07:10:30;2.13;;;1.70;;
33162;SDS011;29282;45.656;11.302;2024-01-06T07:12:55;1.58;;;1.48;;
33162;SDS011;29282;45.656;11.302;2024-01-06T07:15:21;1.60;;;1.50;;
33162;SDS011;29282;45.656;11.302;2024-01-06T07:17:46;1.58;;;1.48;;
33162;SDS011;29282;45.656;11.302;2024-01-06T07:20:12;1.60;;;1.50;;
33162;SDS011;29282;45.656;11.302;2024-01-06T07:22:37;1.60;;;1.50;;
33162;SDS011;29282;45.656;11.302;2024-01-06T07:25:03;1.73;;;1.55;;
33162;SDS011;29282;45.656;11.302;2024-01-06T07:27:29;2.10;;;1.40;;
33162;SDS011;29282;45.656;11.302;2024-01-06T07:29:54;1.60;;;1.50;;
33162;SDS011;29282;45.656;11.302;2024-01-06T07:32:21;1.98;;;1.42;;
33162;SDS011;29282;45.656;11.302;2024-01-06T07:34:47;1.67;;;1.50;;
33162;SDS011;29282;45.656;11.302;2024-01-06T07:37:13;1.58;;;1.40;;
33162;SDS011;29282;45.656;11.302;2024-01-06T07:39:38;2.22;;;1.58;;
33162;SDS011;29282;45.656;11.302;2024-01-06T07:42:06;1.60;;;1.50;;
33162;SDS011;29282;45.656;11.302;2024-01-06T07:44:32;5.60;;;1.60;;
33162;SDS011;29282;45.656;11.302;2024-01-06T07:46:58;1.48;;;1.38;;
33162;SDS011;29282;45.656;11.302;2024-01-06T07:49:24;1.52;;;1.42;;
33162;SDS011;29282;45.656;11.302;2024-01-06T07:51:49;1.65;;;1.20;;
33162;SDS011;29282;45.656;11.302;2024-01-06T07:54:15;1.73;;;1.38;;
33162;SDS011;29282;45.656;11.302;2024-01-06T07:56:40;1.63;;;1.30;;
33162;SDS011;29282;45.656;11.302;2024-01-06T07:59:06;2.20;;;1.52;;
33162;SDS011;29282;45.656;11.302;2024-01-06T08:01:34;1.98;;;1.63;;
33162;SDS011;29282;45.656;11.302;2024-01-06T08:04:00;1.90;;;1.63;;
33162;SDS011;29282;45.656;11.302;2024-01-06T08:06:25;3.03;;;1.55;;
33162;SDS011;29282;45.656;11.302;2024-01-06T08:08:51;2.58;;;1.30;;
33162;SDS011;29282;45.656;11.302;2024-01-06T08:11:17;1.98;;;1.67;;
33162;SDS011;29282;45.656;11.302;2024-01-06T08:13:42;1.90;;;1.55;;
33162;SDS011;29282;45.656;11.302;2024-01-06T08:16:08;1.60;;;1.50;;
33162;SDS011;29282;45.656;11.302;2024-01-06T08:18:34;2.08;;;1.70;;
33162;SDS011;29282;45.656;11.302;2024-01-06T08:21:00;2.88;;;1.67;;
33162;SDS011;29282;45.656;11.302;2024-01-06T08:23:25;2.40;;;1.70;;
33162;SDS011;29282;45.656;11.302;2024-01-06T08:25:51;2.65;;;1.40;;
33162;SDS011;29282;45.656;11.302;2024-01-06T08:28:16;1.83;;;1.42;;
33162;SDS011;29282;45.656;11.302;2024-01-06T08:30:43;2.60;;;1.48;;
33162;SDS011;29282;45.656;11.302;2024-01-06T08:33:09;1.45;;;1.35;;
33162;SDS011;29282;45.656;11.302;2024-01-06T08:35:35;3.08;;;1.52;;
33162;SDS011;29282;45.656;11.302;2024-01-06T08:38:06;2.40;;;1.50;;
33162;SDS011;29282;45.656;11.302;2024-01-06T08:40:32;1.70;;;1.58;;
33162;SDS011;29282;45.656;11.302;2024-01-06T08:43:01;1.77;;;1.50;;
33162;SDS011;29282;45.656;11.302;2024-01-06T08:45:28;4.22;;;1.70;;
33162;SDS011;29282;45.656;11.302;2024-01-06T08:47:53;1.80;;;1.65;;
33162;SDS011;29282;45.656;11.302;2024-01-06T08:50:19;1.58;;;1.45;;
33162;SDS011;29282;45.656;11.302;2024-01-06T08:52:44;3.47;;;1.40;;
33162;SDS011;29282;45.656;11.302;2024-01-06T08:55:10;3.17;;;1.45;;
33162;SDS011;29282;45.656;11.302;2024-01-06T08:57:35;1.50;;;1.40;;
33162;SDS011;29282;45.656;11.302;2024-01-06T09:00:02;1.85;;;1.40;;
33162;SDS011;29282;45.656;11.302;2024-01-06T09:02:29;8.35;;;1.98;;
33162;SDS011;29282;45.656;11.302;2024-01-06T09:04:54;2.10;;;1.70;;
33162;SDS011;29282;45.656;11.302;2024-01-06T09:07:22;3.30;;;1.77;;
33162;SDS011;29282;45.656;11.302;2024-01-06T09:09:48;2.00;;;1.50;;
33162;SDS011;29282;45.656;11.302;2024-01-06T09:12:13;2.13;;;1.60;;
33162;SDS011;29282;45.656;11.302;2024-01-06T09:14:39;4.30;;;1.50;;
33162;SDS011;29282;45.656;11.302;2024-01-06T09:17:05;1.70;;;1.48;;
33162;SDS011;29282;45.656;11.302;2024-01-06T09:19:31;3.40;;;1.65;;
33162;SDS011;29282;45.656;11.302;2024-01-06T09:21:56;2.08;;;1.75;;
33162;SDS011;29282;45.656;11.302;2024-01-06T09:24:25;3.60;;;1.65;;
33162;SDS011;29282;45.656;11.302;2024-01-06T09:26:50;1.88;;;1.70;;
33162;SDS011;29282;45.656;11.302;2024-01-06T09:29:16;2.83;;;2.00;;
33162;SDS011;29282;45.656;11.302;2024-01-06T09:31:42;2.03;;;1.75;;
33162;SDS011;29282;45.656;11.302;2024-01-06T09:34:11;3.28;;;1.98;;
33162;SDS011;29282;45.656;11.302;2024-01-06T09:36:37;2.83;;;2.30;;
33162;SDS011;29282;45.656;11.302;2024-01-06T09:39:03;6.72;;;2.75;;
33162;SDS011;29282;45.656;11.302;2024-01-06T09:41:29;3.55;;;2.00;;
33162;SDS011;29282;45.656;11.302;2024-01-06T09:43:56;3.22;;;2.45;;
33162;SDS011;29282;45.656;11.302;2024-01-06T09:46:24;3.83;;;2.47;;
33162;SDS011;29282;45.656;11.302;2024-01-06T09:48:52;4.88;;;2.40;;
33162;SDS011;29282;45.656;11.302;2024-01-06T09:51:18;6.25;;;3.00;;
33162;SDS011;29282;45.656;11.302;2024-01-06T09:53:58;4.15;;;2.70;;
33162;SDS011;29282;45.656;11.302;2024-01-06T09:56:25;6.00;;;2.67;;
33162;SDS011;29282;45.656;11.302;2024-01-06T09:58:52;5.22;;;3.28;;
33162;SDS011;29282;45.656;11.302;2024-01-06T10:01:19;7.10;;;3.08;;
33162;SDS011;29282;45.656;11.302;2024-01-06T10:03:45;5.40;;;2.90;;
33162;SDS011;29282;45.656;11.302;2024-01-06T10:06:11;4.47;;;2.92;;
33162;SDS011;29282;45.656;11.302;2024-01-06T10:08:38;7.13;;;3.05;;
33162;SDS011;29282;45.656;11.302;2024-01-06T10:11:05;8.20;;;3.67;;
33162;SDS011;29282;45.656;11.302;2024-01-06T10:13:32;5.15;;;3.35;;
33162;SDS011;29282;45.656;11.302;2024-01-06T10:15:58;6.40;;;3.42;;
33162;SDS011;29282;45.656;11.302;2024-01-06T10:18:24;4.13;;;3.10;;
33162;SDS011;29282;45.656;11.302;2024-01-06T10:20:51;8.82;;;2.95;;
33162;SDS011;29282;45.656;11.302;2024-01-06T10:23:19;6.32;;;3.33;;
33162;SDS011;29282;45.656;11.302;2024-01-06T10:25:47;6.40;;;3.08;;
33162;SDS011;29282;45.656;11.302;2024-01-06T10:28:12;4.22;;;2.97;;
33162;SDS011;29282;45.656;11.302;2024-01-06T10:30:38;8.60;;;3.30;;
33162;SDS011;29282;45.656;11.302;2024-01-06T10:33:08;9.35;;;3.10;;
33162;SDS011;29282;45.656;11.302;2024-01-06T10:35:35;11.63;;;4.05;;
33162;SDS011;29282;45.656;11.302;2024-01-06T10:38:01;11.68;;;3.30;;
33162;SDS011;29282;45.656;11.302;2024-01-06T10:40:28;18.30;;;3.55;;
33162;SDS011;29282;45.656;11.302;2024-01-06T10:42:54;9.88;;;4.03;;
33162;SDS011;29282;45.656;11.302;2024-01-06T10:45:22;10.18;;;3.28;;
33162;SDS011;29282;45.656;11.302;2024-01-06T10:47:48;14.18;;;3.58;;
33162;SDS011;29282;45.656;11.302;2024-01-06T10:50:16;12.55;;;3.03;;
33162;SDS011;29282;45.656;11.302;2024-01-06T10:52:42;10.98;;;3.35;;
33162;SDS011;29282;45.656;11.302;2024-01-06T10:55:11;7.05;;;3.08;;
33162;SDS011;29282;45.656;11.302;2024-01-06T10:57:40;6.20;;;3.60;;
33162;SDS011;29282;45.656;11.302;2024-01-06T11:00:08;6.97;;;2.95;;
33162;SDS011;29282;45.656;11.302;2024-01-06T11:02:35;10.38;;;3.20;;
33162;SDS011;29282;45.656;11.302;2024-01-06T11:05:01;11.05;;;3.42;;
33162;SDS011;29282;45.656;11.302;2024-01-06T11:07:27;8.50;;;3.22;;
33162;SDS011;29282;45.656;11.302;2024-01-06T11:09:55;8.65;;;3.03;;
33162;SDS011;29282;45.656;11.302;2024-01-06T11:12:23;8.02;;;3.05;;
33162;SDS011;29282;45.656;11.302;2024-01-06T11:14:51;13.88;;;3.80;;
33162;SDS011;29282;45.656;11.302;2024-01-06T11:20:23;6.35;;;2.60;;
33162;SDS011;29282;45.656;11.302;2024-01-06T11:22:51;8.35;;;2.97;;
33162;SDS011;29282;45.656;11.302;2024-01-06T11:25:21;8.48;;;3.13;;
33162;SDS011;29282;45.656;11.302;2024-01-06T11:27:48;10.13;;;3.15;;
33162;SDS011;29282;45.656;11.302;2024-01-06T11:30:21;8.15;;;2.58;;
33162;SDS011;29282;45.656;11.302;2024-01-06T11:32:48;7.68;;;2.75;;
33162;SDS011;29282;45.656;11.302;2024-01-06T11:35:17;7.95;;;2.50;;
33162;SDS011;29282;45.656;11.302;2024-01-06T11:40:09;8.98;;;3.10;;
33162;SDS011;29282;45.656;11.302;2024-01-06T11:42:40;10.95;;;2.90;;
33162;SDS011;29282;45.656;11.302;2024-01-06T11:45:09;10.25;;;2.88;;
33162;SDS011;29282;45.656;11.302;2024-01-06T11:47:35;7.90;;;2.70;;
33162;SDS011;29282;45.656;11.302;2024-01-06T11:50:02;5.97;;;2.90;;
33162;SDS011;29282;45.656;11.302;2024-01-06T11:52:30;9.88;;;3.00;;
33162;SDS011;29282;45.656;11.302;2024-01-06T11:54:59;10.35;;;2.80;;
33162;SDS011;29282;45.656;11.302;2024-01-06T11:57:26;8.55;;;2.97;;
33162;SDS011;29282;45.656;11.302;2024-01-06T11:59:52;5.85;;;2.72;;
33162;SDS011;29282;45.656;11.302;2024-01-06T12:02:21;10.13;;;3.17;;
33162;SDS011;29282;45.656;11.302;2024-01-06T12:04:50;6.18;;;2.65;;
33162;SDS011;29282;45.656;11.302;2024-01-06T12:07:19;5.45;;;2.65;;
33162;SDS011;29282;45.656;11.302;2024-01-06T12:09:47;7.80;;;2.80;;
33162;SDS011;29282;45.656;11.302;2024-01-06T12:12:17;6.53;;;2.47;;
33162;SDS011;29282;45.656;11.302;2024-01-06T12:14:43;7.63;;;2.80;;
33162;SDS011;29282;45.656;11.302;2024-01-06T12:17:09;4.03;;;2.47;;
33162;SDS011;29282;45.656;11.302;2024-01-06T12:19:35;6.95;;;2.80;;
33162;SDS011;29282;45.656;11.302;2024-01-06T12:22:01;7.30;;;2.72;;
33162;SDS011;29282;45.656;11.302;2024-01-06T12:24:28;12.00;;;2.60;;
33162;SDS011;29282;45.656;11.302;2024-01-06T12:26:57;2.70;;;2.38;;
33162;SDS011;29282;45.656;11.302;2024-01-06T12:29:25;6.53;;;2.50;;
33162;SDS011;29282;45.656;11.302;2024-01-06T12:31:53;4.93;;;2.45;;
33162;SDS011;29282;45.656;11.302;2024-01-06T12:34:20;6.63;;;2.35;;
33162;SDS011;29282;45.656;11.302;2024-01-06T12:36:45;16.42;;;2.80;;
33162;SDS011;29282;45.656;11.302;2024-01-06T12:39:12;4.30;;;2.50;;
33162;SDS011;29282;45.656;11.302;2024-01-06T12:41:38;3.95;;;2.60;;
33162;SDS011;29282;45.656;11.302;2024-01-06T12:44:08;2.80;;;2.17;;
33162;SDS011;29282;45.656;11.302;2024-01-06T12:46:37;4.90;;;2.40;;
33162;SDS011;29282;45.656;11.302;2024-01-06T12:49:03;6.78;;;2.35;;
33162;SDS011;29282;45.656;11.302;2024-01-06T12:51:29;5.03;;;2.35;;
33162;SDS011;29282;45.656;11.302;2024-01-06T12:53:54;2.95;;;2.17;;
33162;SDS011;29282;45.656;11.302;2024-01-06T12:56:20;6.07;;;2.13;;
33162;SDS011;29282;45.656;11.302;2024-01-06T12:58:45;3.55;;;2.25;;
33162;SDS011;29282;45.656;11.302;2024-01-06T13:01:11;5.28;;;2.72;;
33162;SDS011;29282;45.656;11.302;2024-01-06T13:03:36;3.25;;;2.28;;
33162;SDS011;29282;45.656;11.302;2024-01-06T13:06:02;3.65;;;2.30;;
33162;SDS011;29282;45.656;11.302;2024-01-06T13:08:32;4.38;;;2.25;;
33162;SDS011;29282;45.656;11.302;2024-01-06T13:10:58;3.63;;;2.33;;
33162;SDS011;29282;45.656;11.302;2024-01-06T13:13:23;4.50;;;2.55;;
33162;SDS011;29282;45.656;11.302;2024-01-06T13:15:49;5.43;;;2.35;;
33162;SDS011;29282;45.656;11.302;2024-01-06T13:18:14;4.63;;;2.50;;
33162;SDS011;29282;45.656;11.302;2024-01-06T13:20:42;4.28;;;2.20;;
33162;SDS011;29282;45.656;11.302;2024-01-06T13:23:08;4.70;;;2.60;;
33162;SDS011;29282;45.656;11.302;2024-01-06T13:25:37;8.60;;;2.25;;
33162;SDS011;29282;45.656;11.302;2024-01-06T13:28:06;4.20;;;2.17;;
33162;SDS011;29282;45.656;11.302;2024-01-06T13:30:32;4.00;;;2.30;;
33162;SDS011;29282;45.656;11.302;2024-01-06T13:32:58;4.85;;;2.42;;
33162;SDS011;29282;45.656;11.302;2024-01-06T13:35:24;3.00;;;1.90;;
33162;SDS011;29282;45.656;11.302;2024-01-06T13:37:50;3.58;;;2.30;;
33162;SDS011;29282;45.656;11.302;2024-01-06T13:40:17;4.22;;;2.30;;
33162;SDS011;29282;45.656;11.302;2024-01-06T13:42:47;5.05;;;2.40;;
33162;SDS011;29282;45.656;11.302;2024-01-06T13:45:14;3.53;;;1.90;;
33162;SDS011;29282;45.656;11.302;2024-01-06T13:47:39;4.68;;;2.03;;
33162;SDS011;29282;45.656;11.302;2024-01-06T13:50:07;3.50;;;2.20;;
33162;SDS011;29282;45.656;11.302;2024-01-06T13:52:34;3.63;;;2.42;;
33162;SDS011;29282;45.656;11.302;2024-01-06T13:55:00;3.33;;;2.40;;
33162;SDS011;29282;45.656;11.302;2024-01-06T13:57:26;3.15;;;2.00;;
33162;SDS011;29282;45.656;11.302;2024-01-06T13:59:51;3.28;;;2.05;;
33162;SDS011;29282;45.656;11.302;2024-01-06T14:02:17;5.13;;;1.92;;
33162;SDS011;29282;45.656;11.302;2024-01-06T14:04:42;3.08;;;2.00;;
33162;SDS011;29282;45.656;11.302;2024-01-06T14:07:08;3.38;;;2.20;;
33162;SDS011;29282;45.656;11.302;2024-01-06T14:09:35;4.95;;;2.42;;
33162;SDS011;29282;45.656;11.302;2024-01-06T14:12:01;3.45;;;2.22;;
33162;SDS011;29282;45.656;11.302;2024-01-06T14:14:26;2.60;;;2.03;;
33162;SDS011;29282;45.656;11.302;2024-01-06T14:16:52;3.38;;;2.00;;
33162;SDS011;29282;45.656;11.302;2024-01-06T14:19:17;3.70;;;1.95;;
33162;SDS011;29282;45.656;11.302;2024-01-06T14:21:43;3.42;;;2.28;;
33162;SDS011;29282;45.656;11.302;2024-01-06T14:24:08;3.30;;;2.20;;
33162;SDS011;29282;45.656;11.302;2024-01-06T14:26:34;2.90;;;1.98;;
33162;SDS011;29282;45.656;11.302;2024-01-06T14:28:59;2.55;;;1.85;;
33162;SDS011;29282;45.656;11.302;2024-01-06T14:31:25;5.53;;;2.42;;
33162;SDS011;29282;45.656;11.302;2024-01-06T14:33:53;2.88;;;2.17;;